PAED METAR and TAF weather

Enter ICAO airport designator
Station Type Date Time Source
PAED METAR 2022/05/24 11:56 UTC NOAA

PAED 241156Z 18006KT 10SM SCT029 BKN090 07/03 A2995 RMK AO2A SLP139 T00730030 10098 20073 52004 $


Station Type Date Time Source
PAED Decoded METAR 2022/05/24 11:56 UTC NOAA

Anchorage, Elmendorf Air Force Base, AK, United States (PAED) 61-15-11N 149-47-38W 59M
May 24, 2022 - 07:56 AM EDT / 2022.05.24 1156 UTC
Wind: from the S (180 degrees) at 7 MPH (6 KT):0
Visibility: 10 mile(s):0
Sky conditions: mostly cloudy
Temperature: 45.1 F (7.3 C)
Dew Point: 37.4 F (3.0 C)
Relative Humidity: 74%
Pressure (altimeter): 29.95 in. Hg (1014 hPa)
Pressure tendency: 0.01 inches (0.4 hPa) higher than three hours ago
ob: PAED 241156Z 18006KT 10SM SCT029 BKN090 07/03 A2995 RMK AO2A SLP139 T00730030 10098 20073 52004
cycle: 12

Station Type Date Time Source
PAED TAF 2022/05/24 10:09 UTC NOAA

TAF TAF PAED 241002Z 2410/2516 22006KT 9999 VCSH SCT030 BKN040 BKN100 QNH2990INS
TEMPO 2414/2417 25009KT 9000 -RA SCT025 BKN030 OVC070
BECMG 2503/2504 25009KT 9999 NSW SCT050 BKN100 QNH2993INS TX14/2502Z TN06/2414Z

Example: see airport list